sensor_id;sensor_type;location;lat;lon;timestamp;temperature;humidity
13344;DHT22;6741;48.964;9.406;2023-07-20T00:00:59;18.90;99.90
13344;DHT22;6741;48.964;9.406;2023-07-20T00:03:26;18.90;99.90
13344;DHT22;6741;48.964;9.406;2023-07-20T00:05:53;18.80;99.90
13344;DHT22;6741;48.964;9.406;2023-07-20T00:08:20;18.80;99.90
13344;DHT22;6741;48.964;9.406;2023-07-20T00:10:47;18.80;99.90
13344;DHT22;6741;48.964;9.406;2023-07-20T00:13:15;18.70;99.90
13344;DHT22;6741;48.964;9.406;2023-07-20T00:15:44;18.70;99.90
13344;DHT22;6741;48.964;9.406;2023-07-20T00:18:11;18.60;99.90
13344;DHT22;6741;48.964;9.406;2023-07-20T00:20:38;18.60;99.90
13344;DHT22;6741;48.964;9.406;2023-07-20T00:23:05;18.50;99.90
13344;DHT22;6741;48.964;9.406;2023-07-20T00:25:32;18.50;99.90
13344;DHT22;6741;48.964;9.406;2023-07-20T00:27:59;18.40;99.90
13344;DHT22;6741;48.964;9.406;2023-07-20T00:30:28;18.40;99.90
13344;DHT22;6741;48.964;9.406;2023-07-20T00:32:54;18.40;99.90
13344;DHT22;6741;48.964;9.406;2023-07-20T00:35:22;18.30;99.90
13344;DHT22;6741;48.964;9.406;2023-07-20T00:37:49;18.30;99.90
13344;DHT22;6741;48.964;9.406;2023-07-20T00:40:16;18.20;99.90
13344;DHT22;6741;48.964;9.406;2023-07-20T00:42:44;18.20;99.90
13344;DHT22;6741;48.964;9.406;2023-07-20T00:45:11;18.20;99.90
13344;DHT22;6741;48.964;9.406;2023-07-20T00:47:39;18.10;99.90
13344;DHT22;6741;48.964;9.406;2023-07-20T00:50:06;18.20;99.90
13344;DHT22;6741;48.964;9.406;2023-07-20T00:52:34;18.20;99.90
13344;DHT22;6741;48.964;9.406;2023-07-20T00:55:01;18.10;99.90
13344;DHT22;6741;48.964;9.406;2023-07-20T00:57:28;18.10;99.90
13344;DHT22;6741;48.964;9.406;2023-07-20T00:59:56;18.10;99.90
13344;DHT22;6741;48.964;9.406;2023-07-20T01:02:23;18.00;99.90
13344;DHT22;6741;48.964;9.406;2023-07-20T01:04:51;18.00;99.90
13344;DHT22;6741;48.964;9.406;2023-07-20T01:07:24;17.90;99.90
13344;DHT22;6741;48.964;9.406;2023-07-20T01:09:59;17.90;99.90
13344;DHT22;6741;48.964;9.406;2023-07-20T01:12:32;17.80;99.90
13344;DHT22;6741;48.964;9.406;2023-07-20T01:14:59;17.70;99.90
13344;DHT22;6741;48.964;9.406;2023-07-20T01:17:26;17.50;99.90
13344;DHT22;6741;48.964;9.406;2023-07-20T01:19:54;17.50;99.90
13344;DHT22;6741;48.964;9.406;2023-07-20T01:22:48;17.40;99.90
13344;DHT22;6741;48.964;9.406;2023-07-20T01:25:34;17.30;99.90
13344;DHT22;6741;48.964;9.406;2023-07-20T01:28:35;17.20;99.90
13344;DHT22;6741;48.964;9.406;2023-07-20T01:31:17;17.20;99.90
13344;DHT22;6741;48.964;9.406;2023-07-20T01:33:45;17.10;99.90
13344;DHT22;6741;48.964;9.406;2023-07-20T01:36:14;17.10;99.90
13344;DHT22;6741;48.964;9.406;2023-07-20T01:38:43;17.10;99.90
13344;DHT22;6741;48.964;9.406;2023-07-20T01:41:10;17.00;99.90
13344;DHT22;6741;48.964;9.406;2023-07-20T01:43:37;17.00;99.90
13344;DHT22;6741;48.964;9.406;2023-07-20T01:46:04;16.90;99.90
13344;DHT22;6741;48.964;9.406;2023-07-20T01:48:32;16.90;99.90
13344;DHT22;6741;48.964;9.406;2023-07-20T01:50:59;16.90;99.90
13344;DHT22;6741;48.964;9.406;2023-07-20T01:53:26;16.80;99.90
13344;DHT22;6741;48.964;9.406;2023-07-20T01:55:53;16.70;99.90
13344;DHT22;6741;48.964;9.406;2023-07-20T01:58:20;16.70;99.90
13344;DHT22;6741;48.964;9.406;2023-07-20T02:00:47;16.60;99.90
13344;DHT22;6741;48.964;9.406;2023-07-20T02:03:14;16.50;99.90
13344;DHT22;6741;48.964;9.406;2023-07-20T02:05:43;16.40;99.90
13344;DHT22;6741;48.964;9.406;2023-07-20T02:08:10;16.30;99.90
13344;DHT22;6741;48.964;9.406;2023-07-20T02:10:37;16.20;99.90
13344;DHT22;6741;48.964;9.406;2023-07-20T02:13:04;16.10;99.90
13344;DHT22;6741;48.964;9.406;2023-07-20T02:15:31;16.00;99.90
13344;DHT22;6741;48.964;9.406;2023-07-20T02:17:58;16.10;99.90
13344;DHT22;6741;48.964;9.406;2023-07-20T02:20:25;16.00;99.90
13344;DHT22;6741;48.964;9.406;2023-07-20T02:22:54;15.90;99.90
13344;DHT22;6741;48.964;9.406;2023-07-20T02:25:21;15.90;99.90
13344;DHT22;6741;48.964;9.406;2023-07-20T02:27:48;15.90;99.90
13344;DHT22;6741;48.964;9.406;2023-07-20T02:30:15;15.90;99.90
13344;DHT22;6741;48.964;9.406;2023-07-20T02:32:43;15.90;99.90
13344;DHT22;6741;48.964;9.406;2023-07-20T02:35:11;15.90;99.90
13344;DHT22;6741;48.964;9.406;2023-07-20T02:37:38;15.90;99.90
13344;DHT22;6741;48.964;9.406;2023-07-20T02:40:07;15.80;99.90
13344;DHT22;6741;48.964;9.406;2023-07-20T02:42:34;15.80;99.90
13344;DHT22;6741;48.964;9.406;2023-07-20T02:45:01;15.80;99.90
13344;DHT22;6741;48.964;9.406;2023-07-20T02:47:29;15.70;99.90
13344;DHT22;6741;48.964;9.406;2023-07-20T02:49:57;15.70;99.90
13344;DHT22;6741;48.964;9.406;2023-07-20T02:52:23;15.60;99.90
13344;DHT22;6741;48.964;9.406;2023-07-20T02:54:50;15.50;99.90
13344;DHT22;6741;48.964;9.406;2023-07-20T02:57:19;15.40;99.90
13344;DHT22;6741;48.964;9.406;2023-07-20T02:59:45;15.30;99.90
13344;DHT22;6741;48.964;9.406;2023-07-20T03:02:13;15.30;99.90
13344;DHT22;6741;48.964;9.406;2023-07-20T03:04:40;15.20;99.90
13344;DHT22;6741;48.964;9.406;2023-07-20T03:07:07;15.10;99.90
13344;DHT22;6741;48.964;9.406;2023-07-20T03:09:34;15.10;99.90
13344;DHT22;6741;48.964;9.406;2023-07-20T03:12:01;15.10;99.90
13344;DHT22;6741;48.964;9.406;2023-07-20T03:14:31;15.10;99.90
13344;DHT22;6741;48.964;9.406;2023-07-20T03:16:58;15.10;99.90
13344;DHT22;6741;48.964;9.406;2023-07-20T03:19:25;15.10;99.90
13344;DHT22;6741;48.964;9.406;2023-07-20T03:21:52;15.20;99.90
13344;DHT22;6741;48.964;9.406;2023-07-20T03:24:18;15.20;99.90
13344;DHT22;6741;48.964;9.406;2023-07-20T03:26:46;15.20;99.90
13344;DHT22;6741;48.964;9.406;2023-07-20T03:29:13;15.20;99.90
13344;DHT22;6741;48.964;9.406;2023-07-20T03:31:43;15.20;99.90
13344;DHT22;6741;48.964;9.406;2023-07-20T03:34:09;15.10;99.90
13344;DHT22;6741;48.964;9.406;2023-07-20T03:36:36;15.10;99.90
13344;DHT22;6741;48.964;9.406;2023-07-20T03:39:04;15.10;99.90
13344;DHT22;6741;48.964;9.406;2023-07-20T03:41:31;15.10;99.90
13344;DHT22;6741;48.964;9.406;2023-07-20T03:43:58;15.10;99.90
13344;DHT22;6741;48.964;9.406;2023-07-20T03:46:25;15.20;99.90
13344;DHT22;6741;48.964;9.406;2023-07-20T03:48:53;15.20;99.90
13344;DHT22;6741;48.964;9.406;2023-07-20T03:51:20;15.20;99.90
13344;DHT22;6741;48.964;9.406;2023-07-20T03:53:47;15.10;99.90
13344;DHT22;6741;48.964;9.406;2023-07-20T03:56:14;15.00;99.90
13344;DHT22;6741;48.964;9.406;2023-07-20T03:58:41;14.90;99.90
13344;DHT22;6741;48.964;9.406;2023-07-20T04:01:08;14.80;99.90
13344;DHT22;6741;48.964;9.406;2023-07-20T04:03:35;14.80;99.90
13344;DHT22;6741;48.964;9.406;2023-07-20T04:06:03;14.70;99.90
13344;DHT22;6741;48.964;9.406;2023-07-20T04:08:30;14.60;99.90
13344;DHT22;6741;48.964;9.406;2023-07-20T04:10:57;14.50;99.90
13344;DHT22;6741;48.964;9.406;2023-07-20T04:13:24;14.50;99.90
13344;DHT22;6741;48.964;9.406;2023-07-20T04:15:51;14.50;99.90
13344;DHT22;6741;48.964;9.406;2023-07-20T04:18:18;14.50;99.90
13344;DHT22;6741;48.964;9.406;2023-07-20T04:20:45;14.40;99.90
13344;DHT22;6741;48.964;9.406;2023-07-20T04:23:13;14.40;99.90
13344;DHT22;6741;48.964;9.406;2023-07-20T04:25:40;14.50;99.90
13344;DHT22;6741;48.964;9.406;2023-07-20T04:28:07;14.50;99.90
13344;DHT22;6741;48.964;9.406;2023-07-20T04:30:35;14.50;99.90
13344;DHT22;6741;48.964;9.406;2023-07-20T04:33:03;14.50;99.90
13344;DHT22;6741;48.964;9.406;2023-07-20T04:35:47;14.50;99.90
13344;DHT22;6741;48.964;9.406;2023-07-20T04:38:15;14.50;99.90
13344;DHT22;6741;48.964;9.406;2023-07-20T04:40:43;14.50;99.90
13344;DHT22;6741;48.964;9.406;2023-07-20T04:43:11;14.60;99.90
13344;DHT22;6741;48.964;9.406;2023-07-20T04:45:38;14.70;99.90
13344;DHT22;6741;48.964;9.406;2023-07-20T04:48:08;14.80;99.90
13344;DHT22;6741;48.964;9.406;2023-07-20T04:50:36;14.80;99.90
13344;DHT22;6741;48.964;9.406;2023-07-20T04:53:02;14.90;99.90
13344;DHT22;6741;48.964;9.406;2023-07-20T04:55:31;14.90;99.90
13344;DHT22;6741;48.964;9.406;2023-07-20T04:57:59;14.90;99.90
13344;DHT22;6741;48.964;9.406;2023-07-20T05:00:26;15.00;99.90
13344;DHT22;6741;48.964;9.406;2023-07-20T05:02:53;15.00;99.90
13344;DHT22;6741;48.964;9.406;2023-07-20T05:05:20;15.00;99.90
13344;DHT22;6741;48.964;9.406;2023-07-20T05:07:47;15.10;99.90
13344;DHT22;6741;48.964;9.406;2023-07-20T05:10:14;15.20;99.90
13344;DHT22;6741;48.964;9.406;2023-07-20T05:12:42;15.20;99.90
13344;DHT22;6741;48.964;9.406;2023-07-20T05:15:09;15.20;99.90
13344;DHT22;6741;48.964;9.406;2023-07-20T05:17:36;15.30;99.90
13344;DHT22;6741;48.964;9.406;2023-07-20T05:20:05;15.30;99.90
13344;DHT22;6741;48.964;9.406;2023-07-20T05:22:35;15.40;99.90
13344;DHT22;6741;48.964;9.406;2023-07-20T05:25:06;15.50;99.90
13344;DHT22;6741;48.964;9.406;2023-07-20T05:27:33;15.60;99.90
13344;DHT22;6741;48.964;9.406;2023-07-20T05:30:01;15.70;99.90
13344;DHT22;6741;48.964;9.406;2023-07-20T05:32:28;15.90;99.90
13344;DHT22;6741;48.964;9.406;2023-07-20T05:34:55;16.00;99.90
13344;DHT22;6741;48.964;9.406;2023-07-20T05:37:22;16.10;99.90
13344;DHT22;6741;48.964;9.406;2023-07-20T05:39:49;16.20;99.90
13344;DHT22;6741;48.964;9.406;2023-07-20T05:42:16;16.40;99.90
13344;DHT22;6741;48.964;9.406;2023-07-20T05:44:43;16.50;99.90
13344;DHT22;6741;48.964;9.406;2023-07-20T05:47:11;16.50;99.90
13344;DHT22;6741;48.964;9.406;2023-07-20T05:49:38;16.60;99.90
13344;DHT22;6741;48.964;9.406;2023-07-20T05:52:05;16.70;99.90
13344;DHT22;6741;48.964;9.406;2023-07-20T05:54:32;16.80;99.90
13344;DHT22;6741;48.964;9.406;2023-07-20T05:56:59;16.90;99.90
13344;DHT22;6741;48.964;9.406;2023-07-20T05:59:27;17.00;99.90
13344;DHT22;6741;48.964;9.406;2023-07-20T06:01:55;17.00;99.90
13344;DHT22;6741;48.964;9.406;2023-07-20T06:04:23;17.10;99.90
13344;DHT22;6741;48.964;9.406;2023-07-20T06:06:50;17.20;99.90
13344;DHT22;6741;48.964;9.406;2023-07-20T06:09:17;17.30;99.90
13344;DHT22;6741;48.964;9.406;2023-07-20T06:11:44;17.30;99.90
13344;DHT22;6741;48.964;9.406;2023-07-20T06:14:11;17.50;99.90
13344;DHT22;6741;48.964;9.406;2023-07-20T06:16:37;17.60;99.90
13344;DHT22;6741;48.964;9.406;2023-07-20T06:19:04;17.70;99.90
13344;DHT22;6741;48.964;9.406;2023-07-20T06:21:33;17.80;99.90
13344;DHT22;6741;48.964;9.406;2023-07-20T06:24:00;17.90;99.90
13344;DHT22;6741;48.964;9.406;2023-07-20T06:26:27;18.00;99.90
13344;DHT22;6741;48.964;9.406;2023-07-20T06:28:54;18.10;99.90
13344;DHT22;6741;48.964;9.406;2023-07-20T06:31:21;18.20;99.90
13344;DHT22;6741;48.964;9.406;2023-07-20T06:33:47;18.30;99.90
13344;DHT22;6741;48.964;9.406;2023-07-20T06:36:17;18.30;99.90
13344;DHT22;6741;48.964;9.406;2023-07-20T06:38:46;18.40;99.90
13344;DHT22;6741;48.964;9.406;2023-07-20T06:41:12;18.60;99.90
13344;DHT22;6741;48.964;9.406;2023-07-20T06:43:39;18.80;99.90
13344;DHT22;6741;48.964;9.406;2023-07-20T06:46:06;18.80;99.90
13344;DHT22;6741;48.964;9.406;2023-07-20T06:48:33;19.00;99.90
13344;DHT22;6741;48.964;9.406;2023-07-20T06:51:00;19.00;99.90
13344;DHT22;6741;48.964;9.406;2023-07-20T06:53:28;19.00;99.90
13344;DHT22;6741;48.964;9.406;2023-07-20T06:55:56;19.00;99.90
13344;DHT22;6741;48.964;9.406;2023-07-20T06:58:23;19.20;99.90
13344;DHT22;6741;48.964;9.406;2023-07-20T07:00:50;19.30;99.90
13344;DHT22;6741;48.964;9.406;2023-07-20T07:03:17;19.40;99.90
13344;DHT22;6741;48.964;9.406;2023-07-20T07:05:44;19.40;99.90
13344;DHT22;6741;48.964;9.406;2023-07-20T07:08:11;19.50;99.90
13344;DHT22;6741;48.964;9.406;2023-07-20T07:10:38;19.50;99.90
13344;DHT22;6741;48.964;9.406;2023-07-20T07:13:06;19.50;99.90
13344;DHT22;6741;48.964;9.406;2023-07-20T07:15:33;19.60;99.90
13344;DHT22;6741;48.964;9.406;2023-07-20T07:18:00;19.90;99.90
13344;DHT22;6741;48.964;9.406;2023-07-20T07:20:29;20.10;99.90
13344;DHT22;6741;48.964;9.406;2023-07-20T07:22:55;20.10;99.90
13344;DHT22;6741;48.964;9.406;2023-07-20T07:25:22;20.40;99.90
13344;DHT22;6741;48.964;9.406;2023-07-20T07:27:50;20.70;99.90
13344;DHT22;6741;48.964;9.406;2023-07-20T07:30:19;20.80;99.90
13344;DHT22;6741;48.964;9.406;2023-07-20T07:32:46;20.40;99.90
13344;DHT22;6741;48.964;9.406;2023-07-20T07:35:13;20.40;99.90
13344;DHT22;6741;48.964;9.406;2023-07-20T07:37:40;20.30;99.90
13344;DHT22;6741;48.964;9.406;2023-07-20T07:40:07;20.40;99.90
13344;DHT22;6741;48.964;9.406;2023-07-20T07:42:35;20.60;99.90
13344;DHT22;6741;48.964;9.406;2023-07-20T07:45:01;20.70;99.90
13344;DHT22;6741;48.964;9.406;2023-07-20T07:47:30;20.90;99.90
13344;DHT22;6741;48.964;9.406;2023-07-20T07:49:57;21.20;99.90
13344;DHT22;6741;48.964;9.406;2023-07-20T07:52:24;21.10;99.90
13344;DHT22;6741;48.964;9.406;2023-07-20T07:54:51;20.80;99.90
13344;DHT22;6741;48.964;9.406;2023-07-20T07:57:17;20.40;99.90
13344;DHT22;6741;48.964;9.406;2023-07-20T07:59:44;20.20;99.90
13344;DHT22;6741;48.964;9.406;2023-07-20T08:02:11;20.60;99.90
13344;DHT22;6741;48.964;9.406;2023-07-20T08:04:40;20.70;99.90
13344;DHT22;6741;48.964;9.406;2023-07-20T08:07:06;20.60;99.90
13344;DHT22;6741;48.964;9.406;2023-07-20T08:09:33;20.80;99.90
13344;DHT22;6741;48.964;9.406;2023-07-20T08:12:00;21.10;99.90
13344;DHT22;6741;48.964;9.406;2023-07-20T08:14:27;21.00;99.90
13344;DHT22;6741;48.964;9.406;2023-07-20T08:16:54;21.10;99.90
13344;DHT22;6741;48.964;9.406;2023-07-20T08:19:21;21.50;99.90
13344;DHT22;6741;48.964;9.406;2023-07-20T08:21:49;21.40;99.90
13344;DHT22;6741;48.964;9.406;2023-07-20T08:24:16;21.10;99.90
13344;DHT22;6741;48.964;9.406;2023-07-20T08:26:42;21.30;99.90
13344;DHT22;6741;48.964;9.406;2023-07-20T08:29:09;21.30;99.90
13344;DHT22;6741;48.964;9.406;2023-07-20T08:31:36;21.20;99.90
13344;DHT22;6741;48.964;9.406;2023-07-20T08:34:03;21.10;99.90
13344;DHT22;6741;48.964;9.406;2023-07-20T08:36:30;21.00;99.90
13344;DHT22;6741;48.964;9.406;2023-07-20T08:38:59;20.70;99.90
13344;DHT22;6741;48.964;9.406;2023-07-20T08:41:28;20.90;99.90
13344;DHT22;6741;48.964;9.406;2023-07-20T08:43:57;21.10;99.90
13344;DHT22;6741;48.964;9.406;2023-07-20T08:46:26;21.40;99.90
13344;DHT22;6741;48.964;9.406;2023-07-20T08:48:53;21.10;99.90
13344;DHT22;6741;48.964;9.406;2023-07-20T08:51:21;21.20;99.90
13344;DHT22;6741;48.964;9.406;2023-07-20T08:53:51;21.50;99.90
13344;DHT22;6741;48.964;9.406;2023-07-20T08:56:20;21.90;99.90
13344;DHT22;6741;48.964;9.406;2023-07-20T08:58:47;22.00;99.90
13344;DHT22;6741;48.964;9.406;2023-07-20T09:01:15;21.60;99.90
13344;DHT22;6741;48.964;9.406;2023-07-20T09:03:44;21.60;99.90
13344;DHT22;6741;48.964;9.406;2023-07-20T09:06:12;21.50;99.90
13344;DHT22;6741;48.964;9.406;2023-07-20T09:08:39;22.10;99.90
13344;DHT22;6741;48.964;9.406;2023-07-20T09:11:05;22.40;99.90
13344;DHT22;6741;48.964;9.406;2023-07-20T09:13:34;22.30;99.90
13344;DHT22;6741;48.964;9.406;2023-07-20T09:16:02;22.60;99.90
13344;DHT22;6741;48.964;9.406;2023-07-20T09:18:31;22.90;99.90
13344;DHT22;6741;48.964;9.406;2023-07-20T09:21:02;22.80;99.90
13344;DHT22;6741;48.964;9.406;2023-07-20T09:23:33;22.40;99.90
13344;DHT22;6741;48.964;9.406;2023-07-20T09:26:00;22.30;99.90
13344;DHT22;6741;48.964;9.406;2023-07-20T09:28:27;22.50;99.90
13344;DHT22;6741;48.964;9.406;2023-07-20T09:30:56;22.70;99.90
13344;DHT22;6741;48.964;9.406;2023-07-20T09:33:24;22.60;99.90
13344;DHT22;6741;48.964;9.406;2023-07-20T09:35:51;22.60;99.90
13344;DHT22;6741;48.964;9.406;2023-07-20T09:38:24;22.90;99.90
13344;DHT22;6741;48.964;9.406;2023-07-20T09:40:53;23.10;99.90
13344;DHT22;6741;48.964;9.406;2023-07-20T09:43:20;22.60;99.90
13344;DHT22;6741;48.964;9.406;2023-07-20T09:45:47;22.60;99.90
13344;DHT22;6741;48.964;9.406;2023-07-20T09:48:23;22.80;99.90
13344;DHT22;6741;48.964;9.406;2023-07-20T09:50:51;23.20;99.90
13344;DHT22;6741;48.964;9.406;2023-07-20T09:53:19;23.20;99.90
13344;DHT22;6741;48.964;9.406;2023-07-20T09:55:46;23.20;99.90
13344;DHT22;6741;48.964;9.406;2023-07-20T09:58:14;23.30;99.90
13344;DHT22;6741;48.964;9.406;2023-07-20T10:00:42;23.50;99.90
13344;DHT22;6741;48.964;9.406;2023-07-20T10:03:11;23.20;99.90
13344;DHT22;6741;48.964;9.406;2023-07-20T10:05:43;23.10;99.90
13344;DHT22;6741;48.964;9.406;2023-07-20T10:08:15;23.40;99.90
13344;DHT22;6741;48.964;9.406;2023-07-20T10:10:44;23.20;99.90
13344;DHT22;6741;48.964;9.406;2023-07-20T10:13:17;23.80;99.90
13344;DHT22;6741;48.964;9.406;2023-07-20T10:15:47;24.10;99.90
13344;DHT22;6741;48.964;9.406;2023-07-20T10:18:20;23.70;99.90
13344;DHT22;6741;48.964;9.406;2023-07-20T10:20:51;23.70;99.90
13344;DHT22;6741;48.964;9.406;2023-07-20T10:23:21;23.70;99.90
13344;DHT22;6741;48.964;9.406;2023-07-20T10:25:48;24.00;99.90
13344;DHT22;6741;48.964;9.406;2023-07-20T10:28:16;24.20;99.90
13344;DHT22;6741;48.964;9.406;2023-07-20T10:30:44;24.40;99.90
13344;DHT22;6741;48.964;9.406;2023-07-20T10:33:11;25.00;99.90
13344;DHT22;6741;48.964;9.406;2023-07-20T10:35:53;24.40;98.90
13344;DHT22;6741;48.964;9.406;2023-07-20T10:38:25;24.60;98.70
13344;DHT22;6741;48.964;9.406;2023-07-20T10:41:04;24.90;98.40
13344;DHT22;6741;48.964;9.406;2023-07-20T10:43:42;25.10;99.40
13344;DHT22;6741;48.964;9.406;2023-07-20T10:46:11;25.50;99.00
13344;DHT22;6741;48.964;9.406;2023-07-20T10:49:01;25.70;99.70
13344;DHT22;6741;48.964;9.406;2023-07-20T10:51:30;25.30;97.80
13344;DHT22;6741;48.964;9.406;2023-07-20T10:53:57;25.40;97.40
13344;DHT22;6741;48.964;9.406;2023-07-20T10:56:26;25.40;97.90
13344;DHT22;6741;48.964;9.406;2023-07-20T10:58:58;24.80;97.90
13344;DHT22;6741;48.964;9.406;2023-07-20T11:01:28;24.90;97.30
13344;DHT22;6741;48.964;9.406;2023-07-20T11:03:57;25.20;95.40
13344;DHT22;6741;48.964;9.406;2023-07-20T11:06:33;25.40;95.30
13344;DHT22;6741;48.964;9.406;2023-07-20T11:09:05;25.90;97.00
13344;DHT22;6741;48.964;9.406;2023-07-20T11:11:34;25.10;98.20
13344;DHT22;6741;48.964;9.406;2023-07-20T11:14:03;26.10;96.70
13344;DHT22;6741;48.964;9.406;2023-07-20T11:16:35;26.40;95.60
13344;DHT22;6741;48.964;9.406;2023-07-20T11:19:02;26.60;94.50
13344;DHT22;6741;48.964;9.406;2023-07-20T11:21:36;27.10;92.20
13344;DHT22;6741;48.964;9.406;2023-07-20T11:24:04;26.90;92.40
13344;DHT22;6741;48.964;9.406;2023-07-20T11:26:40;26.20;93.10
13344;DHT22;6741;48.964;9.406;2023-07-20T11:29:07;26.50;93.00
13344;DHT22;6741;48.964;9.406;2023-07-20T11:31:37;27.00;91.70
13344;DHT22;6741;48.964;9.406;2023-07-20T11:34:04;27.40;91.00
13344;DHT22;6741;48.964;9.406;2023-07-20T11:36:31;27.00;92.30
13344;DHT22;6741;48.964;9.406;2023-07-20T11:39:00;26.50;93.60
13344;DHT22;6741;48.964;9.406;2023-07-20T11:41:30;25.80;94.10
13344;DHT22;6741;48.964;9.406;2023-07-20T11:43:57;26.80;93.50
13344;DHT22;6741;48.964;9.406;2023-07-20T11:46:24;27.20;92.40
13344;DHT22;6741;48.964;9.406;2023-07-20T11:48:56;26.70;90.80
13344;DHT22;6741;48.964;9.406;2023-07-20T11:51:24;26.60;92.20
13344;DHT22;6741;48.964;9.406;2023-07-20T11:53:51;27.70;91.80
13344;DHT22;6741;48.964;9.406;2023-07-20T11:56:20;27.90;88.30
13344;DHT22;6741;48.964;9.406;2023-07-20T11:58:47;28.70;90.00
13344;DHT22;6741;48.964;9.406;2023-07-20T12:01:14;28.90;84.60
13344;DHT22;6741;48.964;9.406;2023-07-20T12:03:42;28.10;84.40
13344;DHT22;6741;48.964;9.406;2023-07-20T12:06:09;27.90;89.00
13344;DHT22;6741;48.964;9.406;2023-07-20T12:08:38;27.40;87.50
13344;DHT22;6741;48.964;9.406;2023-07-20T12:11:06;28.10;88.60
13344;DHT22;6741;48.964;9.406;2023-07-20T12:13:39;28.50;89.90
13344;DHT22;6741;48.964;9.406;2023-07-20T12:16:09;28.60;86.00
13344;DHT22;6741;48.964;9.406;2023-07-20T12:18:37;29.10;86.20
13344;DHT22;6741;48.964;9.406;2023-07-20T12:21:06;29.20;85.30
13344;DHT22;6741;48.964;9.406;2023-07-20T12:23:35;28.60;84.10
13344;DHT22;6741;48.964;9.406;2023-07-20T12:26:06;27.90;83.90
13344;DHT22;6741;48.964;9.406;2023-07-20T12:28:38;29.70;85.80
13344;DHT22;6741;48.964;9.406;2023-07-20T12:31:06;30.40;83.90
13344;DHT22;6741;48.964;9.406;2023-07-20T12:33:33;29.90;81.80
13344;DHT22;6741;48.964;9.406;2023-07-20T12:36:00;30.10;82.60
13344;DHT22;6741;48.964;9.406;2023-07-20T12:38:27;29.50;79.90
13344;DHT22;6741;48.964;9.406;2023-07-20T12:40:56;29.00;80.10
13344;DHT22;6741;48.964;9.406;2023-07-20T12:43:24;29.70;79.80
13344;DHT22;6741;48.964;9.406;2023-07-20T12:45:50;30.40;79.00
13344;DHT22;6741;48.964;9.406;2023-07-20T12:48:19;30.70;79.60
13344;DHT22;6741;48.964;9.406;2023-07-20T12:50:46;31.80;75.00
13344;DHT22;6741;48.964;9.406;2023-07-20T12:53:13;30.70;68.60
13344;DHT22;6741;48.964;9.406;2023-07-20T12:55:40;30.70;70.10
13344;DHT22;6741;48.964;9.406;2023-07-20T12:58:07;31.30;66.30
13344;DHT22;6741;48.964;9.406;2023-07-20T13:00:34;30.90;60.00
13344;DHT22;6741;48.964;9.406;2023-07-20T13:03:01;30.80;61.50
13344;DHT22;6741;48.964;9.406;2023-07-20T13:05:32;30.20;68.80
13344;DHT22;6741;48.964;9.406;2023-07-20T13:07:59;31.50;69.50
13344;DHT22;6741;48.964;9.406;2023-07-20T13:10:29;30.70;66.10
13344;DHT22;6741;48.964;9.406;2023-07-20T13:12:56;30.20;64.90
13344;DHT22;6741;48.964;9.406;2023-07-20T13:15:24;30.60;63.30
13344;DHT22;6741;48.964;9.406;2023-07-20T13:17:56;30.40;64.80
13344;DHT22;6741;48.964;9.406;2023-07-20T13:20:23;30.00;64.40
13344;DHT22;6741;48.964;9.406;2023-07-20T13:22:52;30.00;64.50
13344;DHT22;6741;48.964;9.406;2023-07-20T13:25:19;29.50;62.80
13344;DHT22;6741;48.964;9.406;2023-07-20T13:27:46;30.60;63.60
13344;DHT22;6741;48.964;9.406;2023-07-20T13:30:14;31.10;61.10
13344;DHT22;6741;48.964;9.406;2023-07-20T13:32:42;31.60;60.60
13344;DHT22;6741;48.964;9.406;2023-07-20T13:35:09;29.80;60.30
13344;DHT22;6741;48.964;9.406;2023-07-20T13:37:36;29.70;62.90
13344;DHT22;6741;48.964;9.406;2023-07-20T13:40:07;29.20;59.80
13344;DHT22;6741;48.964;9.406;2023-07-20T13:42:39;28.70;61.80
13344;DHT22;6741;48.964;9.406;2023-07-20T13:45:06;29.50;62.40
13344;DHT22;6741;48.964;9.406;2023-07-20T13:47:34;31.00;61.00
13344;DHT22;6741;48.964;9.406;2023-07-20T13:50:01;30.50;56.40
13344;DHT22;6741;48.964;9.406;2023-07-20T13:52:28;31.20;58.60
13344;DHT22;6741;48.964;9.406;2023-07-20T13:54:55;30.60;53.70
13344;DHT22;6741;48.964;9.406;2023-07-20T13:57:23;30.80;59.80
13344;DHT22;6741;48.964;9.406;2023-07-20T13:59:50;31.80;55.50
13344;DHT22;6741;48.964;9.406;2023-07-20T14:02:17;32.20;56.30
13344;DHT22;6741;48.964;9.406;2023-07-20T14:04:44;33.10;52.80
13344;DHT22;6741;48.964;9.406;2023-07-20T14:07:11;33.50;53.80
13344;DHT22;6741;48.964;9.406;2023-07-20T14:09:39;33.30;54.00
13344;DHT22;6741;48.964;9.406;2023-07-20T14:12:06;32.00;53.90
13344;DHT22;6741;48.964;9.406;2023-07-20T14:14:35;30.30;52.40
13344;DHT22;6741;48.964;9.406;2023-07-20T14:17:02;30.40;52.20
13344;DHT22;6741;48.964;9.406;2023-07-20T14:19:29;31.40;51.90
13344;DHT22;6741;48.964;9.406;2023-07-20T14:21:56;30.60;51.50
13344;DHT22;6741;48.964;9.406;2023-07-20T14:24:25;31.50;50.50
13344;DHT22;6741;48.964;9.406;2023-07-20T14:26:52;31.40;49.80
13344;DHT22;6741;48.964;9.406;2023-07-20T14:29:20;32.00;50.80
13344;DHT22;6741;48.964;9.406;2023-07-20T14:31:48;33.10;49.50
13344;DHT22;6741;48.964;9.406;2023-07-20T14:34:16;32.50;48.70
13344;DHT22;6741;48.964;9.406;2023-07-20T14:36:43;32.50;50.10
13344;DHT22;6741;48.964;9.406;2023-07-20T14:39:10;32.40;49.10
13344;DHT22;6741;48.964;9.406;2023-07-20T14:41:37;31.80;48.80
13344;DHT22;6741;48.964;9.406;2023-07-20T14:44:04;32.30;47.70
13344;DHT22;6741;48.964;9.406;2023-07-20T14:46:31;32.90;46.60
13344;DHT22;6741;48.964;9.406;2023-07-20T14:48:59;33.20;47.10
13344;DHT22;6741;48.964;9.406;2023-07-20T14:51:27;33.90;47.60
13344;DHT22;6741;48.964;9.406;2023-07-20T14:53:57;33.50;46.70
13344;DHT22;6741;48.964;9.406;2023-07-20T14:56:24;31.90;47.30
13344;DHT22;6741;48.964;9.406;2023-07-20T14:58:51;32.00;46.20
13344;DHT22;6741;48.964;9.406;2023-07-20T15:01:18;31.20;47.20
13344;DHT22;6741;48.964;9.406;2023-07-20T15:03:44;31.80;46.40
13344;DHT22;6741;48.964;9.406;2023-07-20T15:06:13;32.30;48.30
13344;DHT22;6741;48.964;9.406;2023-07-20T15:08:39;32.90;46.00
13344;DHT22;6741;48.964;9.406;2023-07-20T15:11:06;33.40;44.40
13344;DHT22;6741;48.964;9.406;2023-07-20T15:13:33;32.80;44.80
13344;DHT22;6741;48.964;9.406;2023-07-20T15:16:00;32.70;45.60
13344;DHT22;6741;48.964;9.406;2023-07-20T15:18:27;30.00;45.70
13344;DHT22;6741;48.964;9.406;2023-07-20T15:20:54;30.20;50.60
13344;DHT22;6741;48.964;9.406;2023-07-20T15:23:22;31.30;50.00
13344;DHT22;6741;48.964;9.406;2023-07-20T15:25:49;31.30;46.20
13344;DHT22;6741;48.964;9.406;2023-07-20T15:28:16;30.60;45.30
13344;DHT22;6741;48.964;9.406;2023-07-20T15:30:42;30.30;47.50
13344;DHT22;6741;48.964;9.406;2023-07-20T15:36:51;30.20;48.00
13344;DHT22;6741;48.964;9.406;2023-07-20T15:39:20;30.70;47.30
13344;DHT22;6741;48.964;9.406;2023-07-20T15:41:48;30.80;47.60
13344;DHT22;6741;48.964;9.406;2023-07-20T15:44:14;28.20;47.10
13344;DHT22;6741;48.964;9.406;2023-07-20T15:46:46;28.30;49.30
13344;DHT22;6741;48.964;9.406;2023-07-20T15:49:14;28.70;50.20
13344;DHT22;6741;48.964;9.406;2023-07-20T15:51:41;29.00;50.00
13344;DHT22;6741;48.964;9.406;2023-07-20T15:54:09;29.20;51.70